Terminal Aerodrome Forecast
Issued by NWS

Home | Current Version | Previous Version | Text Only | Print | Product List | Glossary On
Versions: 1 2 3 4 5 6 7 8 9 10 11 12 13 14 15 16
000
FTAK31 PAJN 162300
TAFASI
TAF
PASI 162320Z 1700/1724 28007KT P6SM FEW035 BKN060
     FM170600 VRB02KT P6SM SCT020 BKN050
     FM171500 12004KT P6SM BKN020 OVC050
     FM171800 14007KT P6SM OVC050=

USA.gov is the U.S. government's official web portal to all federal, state and local government web resources and services.